sensor_id;sensor_type;location;lat;lon;timestamp;pressure;altitude;pressure_sealevel;temperature;humidity
45071;BME280;30836;48.906;9.140;2023-01-29T00:00:37;997.59;;;10.33;35.98
45071;BME280;30836;48.906;9.140;2023-01-29T00:01:37;997.59;;;10.32;36.04
45071;BME280;30836;48.906;9.140;2023-01-29T00:02:38;997.57;;;10.29;35.87
45071;BME280;30836;48.906;9.140;2023-01-29T00:03:39;997.57;;;10.26;35.72
45071;BME280;30836;48.906;9.140;2023-01-29T00:04:40;997.45;;;10.22;35.73
45071;BME280;30836;48.906;9.140;2023-01-29T00:05:40;997.45;;;10.17;35.97
45071;BME280;30836;48.906;9.140;2023-01-29T00:06:40;997.45;;;10.12;36.16
45071;BME280;30836;48.906;9.140;2023-01-29T00:07:41;997.45;;;10.07;36.28
45071;BME280;30836;48.906;9.140;2023-01-29T00:08:42;997.45;;;10.05;36.38
45071;BME280;30836;48.906;9.140;2023-01-29T00:09:42;997.45;;;10.05;36.47
45071;BME280;30836;48.906;9.140;2023-01-29T00:10:42;997.47;;;10.08;36.39
45071;BME280;30836;48.906;9.140;2023-01-29T00:11:43;997.47;;;10.10;36.24
45071;BME280;30836;48.906;9.140;2023-01-29T00:12:43;997.49;;;10.13;36.33
45071;BME280;30836;48.906;9.140;2023-01-29T00:13:44;997.45;;;10.17;36.40
45071;BME280;30836;48.906;9.140;2023-01-29T00:14:44;997.47;;;10.21;36.41
45071;BME280;30836;48.906;9.140;2023-01-29T00:16:54;997.43;;;10.24;36.11
45071;BME280;30836;48.906;9.140;2023-01-29T00:17:54;997.45;;;10.24;35.87
45071;BME280;30836;48.906;9.140;2023-01-29T00:18:55;997.41;;;10.19;35.73
45071;BME280;30836;48.906;9.140;2023-01-29T00:19:55;997.43;;;10.13;35.93
45071;BME280;30836;48.906;9.140;2023-01-29T00:20:56;997.43;;;10.10;35.89
45071;BME280;30836;48.906;9.140;2023-01-29T00:21:56;997.41;;;10.07;36.02
45071;BME280;30836;48.906;9.140;2023-01-29T00:22:57;997.43;;;10.05;36.12
45071;BME280;30836;48.906;9.140;2023-01-29T00:23:57;997.43;;;10.05;36.09
45071;BME280;30836;48.906;9.140;2023-01-29T00:24:58;997.41;;;10.04;36.17
45071;BME280;30836;48.906;9.140;2023-01-29T00:25:59;997.41;;;10.02;36.17
45071;BME280;30836;48.906;9.140;2023-01-29T00:26:59;997.41;;;9.99;36.08
45071;BME280;30836;48.906;9.140;2023-01-29T00:28:00;997.43;;;9.89;36.20
45071;BME280;30836;48.906;9.140;2023-01-29T00:29:00;997.43;;;9.75;36.47
45071;BME280;30836;48.906;9.140;2023-01-29T00:30:00;997.43;;;9.66;36.61
45071;BME280;30836;48.906;9.140;2023-01-29T00:32:12;997.45;;;9.66;36.51
45071;BME280;30836;48.906;9.140;2023-01-29T00:33:12;997.43;;;9.66;36.46
45071;BME280;30836;48.906;9.140;2023-01-29T00:34:13;997.43;;;9.68;36.45
45071;BME280;30836;48.906;9.140;2023-01-29T00:35:13;997.41;;;9.72;36.40
45071;BME280;30836;48.906;9.140;2023-01-29T00:36:14;997.37;;;9.76;36.49
45071;BME280;30836;48.906;9.140;2023-01-29T00:37:16;997.37;;;9.78;36.45
45071;BME280;30836;48.906;9.140;2023-01-29T00:38:17;997.37;;;9.71;36.57
45071;BME280;30836;48.906;9.140;2023-01-29T00:39:17;997.39;;;9.61;36.50
45071;BME280;30836;48.906;9.140;2023-01-29T00:40:17;997.39;;;9.54;36.46
45071;BME280;30836;48.906;9.140;2023-01-29T00:41:18;997.37;;;9.45;36.93
45071;BME280;30836;48.906;9.140;2023-01-29T00:42:19;997.39;;;9.42;36.69
45071;BME280;30836;48.906;9.140;2023-01-29T00:43:19;997.39;;;9.47;36.56
45071;BME280;30836;48.906;9.140;2023-01-29T00:44:20;997.37;;;9.56;36.43
45071;BME280;30836;48.906;9.140;2023-01-29T00:45:20;997.41;;;9.63;36.39
45071;BME280;30836;48.906;9.140;2023-01-29T00:45:30;997.39;;;9.72;36.35
45071;BME280;30836;48.906;9.140;2023-01-29T00:46:31;997.39;;;9.72;36.31
45071;BME280;30836;48.906;9.140;2023-01-29T00:47:31;997.41;;;9.65;36.54
45071;BME280;30836;48.906;9.140;2023-01-29T00:48:32;997.41;;;9.53;36.84
45071;BME280;30836;48.906;9.140;2023-01-29T00:49:33;997.43;;;9.43;37.07
45071;BME280;30836;48.906;9.140;2023-01-29T00:50:33;997.47;;;9.42;36.97
45071;BME280;30836;48.906;9.140;2023-01-29T00:51:34;997.43;;;9.48;36.92
45071;BME280;30836;48.906;9.140;2023-01-29T00:52:36;997.47;;;9.57;36.85
45071;BME280;30836;48.906;9.140;2023-01-29T00:53:36;997.47;;;9.65;36.70
45071;BME280;30836;48.906;9.140;2023-01-29T00:54:37;997.45;;;9.72;36.58
45071;BME280;30836;48.906;9.140;2023-01-29T00:55:37;997.47;;;9.79;36.49
45071;BME280;30836;48.906;9.140;2023-01-29T00:56:37;997.45;;;9.83;36.32
45071;BME280;30836;48.906;9.140;2023-01-29T00:57:38;997.43;;;9.86;36.27
45071;BME280;30836;48.906;9.140;2023-01-29T00:58:39;997.45;;;9.85;36.24
45071;BME280;30836;48.906;9.140;2023-01-29T00:59:39;997.43;;;9.81;36.22
45071;BME280;30836;48.906;9.140;2023-01-29T01:00:39;997.45;;;9.78;36.23
45071;BME280;30836;48.906;9.140;2023-01-29T01:01:40;997.47;;;9.73;36.43
45071;BME280;30836;48.906;9.140;2023-01-29T01:02:40;997.49;;;9.64;36.69
45071;BME280;30836;48.906;9.140;2023-01-29T01:03:41;997.47;;;9.57;36.63
45071;BME280;30836;48.906;9.140;2023-01-29T01:04:41;997.47;;;9.57;36.53
45071;BME280;30836;48.906;9.140;2023-01-29T01:05:42;997.47;;;9.57;36.68
45071;BME280;30836;48.906;9.140;2023-01-29T01:06:42;997.45;;;9.58;36.69
45071;BME280;30836;48.906;9.140;2023-01-29T01:07:43;997.43;;;9.60;36.61
45071;BME280;30836;48.906;9.140;2023-01-29T01:08:47;997.41;;;9.57;36.71
45071;BME280;30836;48.906;9.140;2023-01-29T01:09:48;997.41;;;9.51;36.74
45071;BME280;30836;48.906;9.140;2023-01-29T01:10:56;997.41;;;9.48;36.79
45071;BME280;30836;48.906;9.140;2023-01-29T01:11:59;997.41;;;9.45;37.01
45071;BME280;30836;48.906;9.140;2023-01-29T01:13:00;997.39;;;9.44;36.94
45071;BME280;30836;48.906;9.140;2023-01-29T01:14:02;997.39;;;9.47;36.67
45071;BME280;30836;48.906;9.140;2023-01-29T01:15:03;997.37;;;9.51;36.60
45071;BME280;30836;48.906;9.140;2023-01-29T01:17:13;997.39;;;9.45;36.71
45071;BME280;30836;48.906;9.140;2023-01-29T01:18:14;997.41;;;9.36;37.04
45071;BME280;30836;48.906;9.140;2023-01-29T01:19:14;997.37;;;9.26;37.17
45071;BME280;30836;48.906;9.140;2023-01-29T01:20:15;997.39;;;9.23;37.16
45071;BME280;30836;48.906;9.140;2023-01-29T01:21:15;997.35;;;9.19;37.26
45071;BME280;30836;48.906;9.140;2023-01-29T01:22:16;997.35;;;9.18;37.15
45071;BME280;30836;48.906;9.140;2023-01-29T01:23:17;997.31;;;9.16;37.20
45071;BME280;30836;48.906;9.140;2023-01-29T01:24:18;997.33;;;9.12;37.34
45071;BME280;30836;48.906;9.140;2023-01-29T01:25:19;997.29;;;9.05;37.48
45071;BME280;30836;48.906;9.140;2023-01-29T01:26:20;997.29;;;8.93;37.96
45071;BME280;30836;48.906;9.140;2023-01-29T01:27:20;997.27;;;8.86;37.98
45071;BME280;30836;48.906;9.140;2023-01-29T01:28:21;997.29;;;8.86;37.85
45071;BME280;30836;48.906;9.140;2023-01-29T01:29:21;997.33;;;8.89;37.76
45071;BME280;30836;48.906;9.140;2023-01-29T01:30:22;997.33;;;8.89;37.99
45071;BME280;30836;48.906;9.140;2023-01-29T01:31:23;997.33;;;8.84;38.28
45071;BME280;30836;48.906;9.140;2023-01-29T01:32:24;997.33;;;8.82;38.19
45071;BME280;30836;48.906;9.140;2023-01-29T01:33:24;997.39;;;8.79;38.30
45071;BME280;30836;48.906;9.140;2023-01-29T01:34:25;997.41;;;8.72;38.28
45071;BME280;30836;48.906;9.140;2023-01-29T01:35:25;997.41;;;8.59;38.58
45071;BME280;30836;48.906;9.140;2023-01-29T01:36:26;997.41;;;8.45;38.78
45071;BME280;30836;48.906;9.140;2023-01-29T01:37:26;997.41;;;8.44;38.85
45071;BME280;30836;48.906;9.140;2023-01-29T01:38:27;997.43;;;8.38;38.95
45071;BME280;30836;48.906;9.140;2023-01-29T01:39:27;997.39;;;8.21;39.38
45071;BME280;30836;48.906;9.140;2023-01-29T01:40:28;997.43;;;7.98;39.97
45071;BME280;30836;48.906;9.140;2023-01-29T01:41:29;997.43;;;7.80;40.01
45071;BME280;30836;48.906;9.140;2023-01-29T01:42:30;997.41;;;7.74;40.04
45071;BME280;30836;48.906;9.140;2023-01-29T01:45:52;997.37;;;7.61;40.44
45071;BME280;30836;48.906;9.140;2023-01-29T01:46:53;997.35;;;7.55;40.55
45071;BME280;30836;48.906;9.140;2023-01-29T01:49:07;997.37;;;7.60;40.45
45071;BME280;30836;48.906;9.140;2023-01-29T01:50:14;997.35;;;7.65;40.50
45071;BME280;30836;48.906;9.140;2023-01-29T01:51:18;997.37;;;7.69;40.29
45071;BME280;30836;48.906;9.140;2023-01-29T01:52:20;997.39;;;7.78;40.12
45071;BME280;30836;48.906;9.140;2023-01-29T01:53:23;997.37;;;7.92;39.86
45071;BME280;30836;48.906;9.140;2023-01-29T01:54:28;997.37;;;8.12;39.35
45071;BME280;30836;48.906;9.140;2023-01-29T01:55:31;997.33;;;8.32;39.04
45071;BME280;30836;48.906;9.140;2023-01-29T01:56:34;997.31;;;8.50;38.84
45071;BME280;30836;48.906;9.140;2023-01-29T01:57:40;997.31;;;8.67;38.58
45071;BME280;30836;48.906;9.140;2023-01-29T01:58:46;997.33;;;8.82;38.29
45071;BME280;30836;48.906;9.140;2023-01-29T01:59:52;997.31;;;8.93;38.11
45071;BME280;30836;48.906;9.140;2023-01-29T02:00:57;997.31;;;9.02;38.05
45071;BME280;30836;48.906;9.140;2023-01-29T02:01:57;997.33;;;9.12;37.94
45071;BME280;30836;48.906;9.140;2023-01-29T02:02:58;997.31;;;9.21;37.75
45071;BME280;30836;48.906;9.140;2023-01-29T02:05:10;997.33;;;9.31;37.47
45071;BME280;30836;48.906;9.140;2023-01-29T02:06:13;997.35;;;9.37;37.46
45071;BME280;30836;48.906;9.140;2023-01-29T02:07:13;997.35;;;9.41;37.33
45071;BME280;30836;48.906;9.140;2023-01-29T02:08:16;997.35;;;9.44;37.15
45071;BME280;30836;48.906;9.140;2023-01-29T02:11:39;997.39;;;9.36;37.37
45071;BME280;30836;48.906;9.140;2023-01-29T02:12:40;997.37;;;9.21;37.51
45071;BME280;30836;48.906;9.140;2023-01-29T02:13:43;997.37;;;9.05;37.76
45071;BME280;30836;48.906;9.140;2023-01-29T02:14:44;997.39;;;8.93;38.02
45071;BME280;30836;48.906;9.140;2023-01-29T02:15:45;997.37;;;8.85;38.16
45071;BME280;30836;48.906;9.140;2023-01-29T02:16:46;997.39;;;8.78;38.31
45071;BME280;30836;48.906;9.140;2023-01-29T02:17:46;997.37;;;8.73;38.44
45071;BME280;30836;48.906;9.140;2023-01-29T02:18:47;997.39;;;8.66;38.50
45071;BME280;30836;48.906;9.140;2023-01-29T02:19:55;997.37;;;8.60;38.58
45071;BME280;30836;48.906;9.140;2023-01-29T02:23:32;997.41;;;8.54;38.75
45071;BME280;30836;48.906;9.140;2023-01-29T02:30:35;997.43;;;8.32;39.08
45071;BME280;30836;48.906;9.140;2023-01-29T02:31:41;997.43;;;8.31;39.21
45071;BME280;30836;48.906;9.140;2023-01-29T02:32:50;997.41;;;8.35;39.19
45071;BME280;30836;48.906;9.140;2023-01-29T02:35:23;997.39;;;8.53;38.71
45071;BME280;30836;48.906;9.140;2023-01-29T02:38:48;997.41;;;8.29;39.32
45071;BME280;30836;48.906;9.140;2023-01-29T02:41:02;997.39;;;8.25;39.37
45071;BME280;30836;48.906;9.140;2023-01-29T02:44:39;997.33;;;8.32;39.49
45071;BME280;30836;48.906;9.140;2023-01-29T02:45:52;997.35;;;8.35;39.44
45071;BME280;30836;48.906;9.140;2023-01-29T02:47:00;997.35;;;8.39;39.31
45071;BME280;30836;48.906;9.140;2023-01-29T02:48:08;997.33;;;8.44;39.18
45071;BME280;30836;48.906;9.140;2023-01-29T02:49:20;997.31;;;8.45;39.00
45071;BME280;30836;48.906;9.140;2023-01-29T02:50:24;997.29;;;8.46;38.96
45071;BME280;30836;48.906;9.140;2023-01-29T02:51:35;997.31;;;8.49;38.88
45071;BME280;30836;48.906;9.140;2023-01-29T02:53:54;997.31;;;8.52;38.74
45071;BME280;30836;48.906;9.140;2023-01-29T02:57:27;997.25;;;8.30;38.95
45071;BME280;30836;48.906;9.140;2023-01-29T02:58:33;997.23;;;8.31;38.87
45071;BME280;30836;48.906;9.140;2023-01-29T03:00:51;997.33;;;8.55;38.40
45071;BME280;30836;48.906;9.140;2023-01-29T03:01:56;997.35;;;8.71;38.21
45071;BME280;30836;48.906;9.140;2023-01-29T03:03:04;997.37;;;8.85;37.86
45071;BME280;30836;48.906;9.140;2023-01-29T03:04:07;997.39;;;8.97;37.67
45071;BME280;30836;48.906;9.140;2023-01-29T03:05:12;997.37;;;9.08;37.44
45071;BME280;30836;48.906;9.140;2023-01-29T03:06:18;997.37;;;9.18;37.19
45071;BME280;30836;48.906;9.140;2023-01-29T03:07:27;997.39;;;9.26;37.09
45071;BME280;30836;48.906;9.140;2023-01-29T03:08:37;997.35;;;9.33;36.94
45071;BME280;30836;48.906;9.140;2023-01-29T03:09:42;997.39;;;9.38;36.87
45071;BME280;30836;48.906;9.140;2023-01-29T03:11:57;997.33;;;9.44;36.44
45071;BME280;30836;48.906;9.140;2023-01-29T03:13:07;997.31;;;9.40;36.47
45071;BME280;30836;48.906;9.140;2023-01-29T03:14:15;997.31;;;9.39;36.49
45071;BME280;30836;48.906;9.140;2023-01-29T03:15:25;997.33;;;9.37;36.43
45071;BME280;30836;48.906;9.140;2023-01-29T03:17:36;997.33;;;9.24;36.70
45071;BME280;30836;48.906;9.140;2023-01-29T03:18:51;997.31;;;9.11;37.12
45071;BME280;30836;48.906;9.140;2023-01-29T03:19:56;997.31;;;8.88;37.53
45071;BME280;30836;48.906;9.140;2023-01-29T03:20:59;997.29;;;8.67;37.79
45071;BME280;30836;48.906;9.140;2023-01-29T03:22:05;997.31;;;8.48;38.39
45071;BME280;30836;48.906;9.140;2023-01-29T03:23:08;997.29;;;8.35;38.63
45071;BME280;30836;48.906;9.140;2023-01-29T03:24:14;997.33;;;8.28;38.78
45071;BME280;30836;48.906;9.140;2023-01-29T03:25:19;997.33;;;8.24;38.79
45071;BME280;30836;48.906;9.140;2023-01-29T03:26:22;997.35;;;8.24;38.72
45071;BME280;30836;48.906;9.140;2023-01-29T03:27:26;997.33;;;8.33;38.53
45071;BME280;30836;48.906;9.140;2023-01-29T03:28:30;997.33;;;8.50;38.21
45071;BME280;30836;48.906;9.140;2023-01-29T03:29:32;997.33;;;8.64;37.94
45071;BME280;30836;48.906;9.140;2023-01-29T03:30:36;997.37;;;8.67;37.92
45071;BME280;30836;48.906;9.140;2023-01-29T03:31:41;997.33;;;8.61;38.11
45071;BME280;30836;48.906;9.140;2023-01-29T03:32:42;997.33;;;8.54;38.26
45071;BME280;30836;48.906;9.140;2023-01-29T03:33:49;997.29;;;8.48;38.29
45071;BME280;30836;48.906;9.140;2023-01-29T03:34:59;997.27;;;8.40;38.47
45071;BME280;30836;48.906;9.140;2023-01-29T03:36:05;997.29;;;8.25;38.86
45071;BME280;30836;48.906;9.140;2023-01-29T03:38:21;997.31;;;7.90;39.48
45071;BME280;30836;48.906;9.140;2023-01-29T03:39:22;997.31;;;7.79;39.56
45071;BME280;30836;48.906;9.140;2023-01-29T03:40:25;997.29;;;7.67;39.98
45071;BME280;30836;48.906;9.140;2023-01-29T03:41:30;997.27;;;7.51;40.35
45071;BME280;30836;48.906;9.140;2023-01-29T03:44:56;997.25;;;7.18;40.89
45071;BME280;30836;48.906;9.140;2023-01-29T03:48:27;997.29;;;6.95;41.23
45071;BME280;30836;48.906;9.140;2023-01-29T03:53:09;997.29;;;6.71;41.83
45071;BME280;30836;48.906;9.140;2023-01-29T03:55:29;997.27;;;6.70;41.89
45071;BME280;30836;48.906;9.140;2023-01-29T03:57:53;997.27;;;6.72;41.91
45071;BME280;30836;48.906;9.140;2023-01-29T03:58:58;997.29;;;6.80;41.75
45071;BME280;30836;48.906;9.140;2023-01-29T04:00:08;997.31;;;6.95;41.39
45071;BME280;30836;48.906;9.140;2023-01-29T04:02:23;997.29;;;7.42;40.26
45071;BME280;30836;48.906;9.140;2023-01-29T04:03:33;997.33;;;7.63;39.87
45071;BME280;30836;48.906;9.140;2023-01-29T04:04:36;997.37;;;7.86;39.45
45071;BME280;30836;48.906;9.140;2023-01-29T04:05:41;997.37;;;8.03;39.18
45071;BME280;30836;48.906;9.140;2023-01-29T04:06:46;997.37;;;8.12;39.10
45071;BME280;30836;48.906;9.140;2023-01-29T04:07:51;997.39;;;8.15;39.17
45071;BME280;30836;48.906;9.140;2023-01-29T04:11:15;997.35;;;8.42;38.36
45071;BME280;30836;48.906;9.140;2023-01-29T04:12:23;997.33;;;8.51;38.16
45071;BME280;30836;48.906;9.140;2023-01-29T04:13:27;997.33;;;8.56;38.01
45071;BME280;30836;48.906;9.140;2023-01-29T04:14:31;997.35;;;8.54;38.17
45071;BME280;30836;48.906;9.140;2023-01-29T04:15:33;997.33;;;8.45;38.41
45071;BME280;30836;48.906;9.140;2023-01-29T04:16:41;997.39;;;8.37;38.63
45071;BME280;30836;48.906;9.140;2023-01-29T04:17:50;997.35;;;8.33;38.64
45071;BME280;30836;48.906;9.140;2023-01-29T04:18:52;997.37;;;8.29;38.78
45071;BME280;30836;48.906;9.140;2023-01-29T04:19:53;997.39;;;8.26;38.90
45071;BME280;30836;48.906;9.140;2023-01-29T04:20:54;997.39;;;8.24;38.79
45071;BME280;30836;48.906;9.140;2023-01-29T04:22:13;997.39;;;8.21;38.84
45071;BME280;30836;48.906;9.140;2023-01-29T04:23:16;997.39;;;8.19;38.88
45071;BME280;30836;48.906;9.140;2023-01-29T04:24:16;997.39;;;8.18;38.96
45071;BME280;30836;48.906;9.140;2023-01-29T04:25:18;997.43;;;8.13;38.98
45071;BME280;30836;48.906;9.140;2023-01-29T04:31:00;997.39;;;7.94;39.46
45071;BME280;30836;48.906;9.140;2023-01-29T04:32:10;997.43;;;7.95;39.38
45071;BME280;30836;48.906;9.140;2023-01-29T04:37:52;997.47;;;7.93;39.01
45071;BME280;30836;48.906;9.140;2023-01-29T04:46:46;997.57;;;7.61;39.71
45071;BME280;30836;48.906;9.140;2023-01-29T04:47:56;997.57;;;7.64;39.69
45071;BME280;30836;48.906;9.140;2023-01-29T04:49:09;997.61;;;7.68;39.64
45071;BME280;30836;48.906;9.140;2023-01-29T04:51:23;997.59;;;7.70;39.56
45071;BME280;30836;48.906;9.140;2023-01-29T04:52:35;997.47;;;7.67;39.64
45071;BME280;30836;48.906;9.140;2023-01-29T04:53:44;997.47;;;7.65;39.55
45071;BME280;30836;48.906;9.140;2023-01-29T04:54:59;997.49;;;7.66;39.48
45071;BME280;30836;48.906;9.140;2023-01-29T04:56:11;997.57;;;7.68;39.42
45071;BME280;30836;48.906;9.140;2023-01-29T04:57:19;997.57;;;7.69;39.40
45071;BME280;30836;48.906;9.140;2023-01-29T04:58:31;997.57;;;7.71;39.35
45071;BME280;30836;48.906;9.140;2023-01-29T04:59:39;997.59;;;7.73;39.48
45071;BME280;30836;48.906;9.140;2023-01-29T05:00:44;997.49;;;7.76;39.52
45071;BME280;30836;48.906;9.140;2023-01-29T05:01:49;997.49;;;7.87;39.26
45071;BME280;30836;48.906;9.140;2023-01-29T05:02:49;997.57;;;7.96;39.10
45071;BME280;30836;48.906;9.140;2023-01-29T05:03:50;997.49;;;8.00;38.96
45071;BME280;30836;48.906;9.140;2023-01-29T05:04:53;997.49;;;8.05;38.74
45071;BME280;30836;48.906;9.140;2023-01-29T05:05:57;997.45;;;8.14;38.61
45071;BME280;30836;48.906;9.140;2023-01-29T05:07:02;997.45;;;8.19;38.60
45071;BME280;30836;48.906;9.140;2023-01-29T05:08:05;997.43;;;8.16;38.63
45071;BME280;30836;48.906;9.140;2023-01-29T05:09:07;997.41;;;8.08;38.73
45071;BME280;30836;48.906;9.140;2023-01-29T05:10:09;997.37;;;7.99;39.12
45071;BME280;30836;48.906;9.140;2023-01-29T05:11:11;997.37;;;7.85;39.43
45071;BME280;30836;48.906;9.140;2023-01-29T05:12:12;997.37;;;7.72;39.45
45071;BME280;30836;48.906;9.140;2023-01-29T05:13:14;997.37;;;7.64;39.76
45071;BME280;30836;48.906;9.140;2023-01-29T05:14:18;997.37;;;7.58;39.81
45071;BME280;30836;48.906;9.140;2023-01-29T05:15:22;997.39;;;7.65;39.57
45071;BME280;30836;48.906;9.140;2023-01-29T05:16:26;997.37;;;7.74;39.42
45071;BME280;30836;48.906;9.140;2023-01-29T05:17:31;997.41;;;7.79;39.39
45071;BME280;30836;48.906;9.140;2023-01-29T05:18:31;997.41;;;7.86;39.35
45071;BME280;30836;48.906;9.140;2023-01-29T05:19:32;997.41;;;7.94;39.24
45071;BME280;30836;48.906;9.140;2023-01-29T05:20:34;997.41;;;7.97;39.28
45071;BME280;30836;48.906;9.140;2023-01-29T05:21:38;997.43;;;7.99;39.01
45071;BME280;30836;48.906;9.140;2023-01-29T05:22:40;997.45;;;8.05;38.95
45071;BME280;30836;48.906;9.140;2023-01-29T05:23:41;997.49;;;8.12;38.79
45071;BME280;30836;48.906;9.140;2023-01-29T05:24:42;997.59;;;8.14;38.79
45071;BME280;30836;48.906;9.140;2023-01-29T05:25:42;997.61;;;8.06;39.11
45071;BME280;30836;48.906;9.140;2023-01-29T05:26:44;997.61;;;7.97;39.37
45071;BME280;30836;48.906;9.140;2023-01-29T05:27:48;997.65;;;7.98;39.25
45071;BME280;30836;48.906;9.140;2023-01-29T05:28:49;997.65;;;8.05;38.99
45071;BME280;30836;48.906;9.140;2023-01-29T05:29:50;997.67;;;8.08;38.97
45071;BME280;30836;48.906;9.140;2023-01-29T05:30:51;997.63;;;8.14;38.84
45071;BME280;30836;48.906;9.140;2023-01-29T05:31:53;997.61;;;8.23;38.78
45071;BME280;30836;48.906;9.140;2023-01-29T05:32:54;997.59;;;8.33;38.67
45071;BME280;30836;48.906;9.140;2023-01-29T05:33:54;997.57;;;8.44;38.46
45071;BME280;30836;48.906;9.140;2023-01-29T05:34:55;997.47;;;8.54;38.22
45071;BME280;30836;48.906;9.140;2023-01-29T05:35:56;997.47;;;8.62;38.17
45071;BME280;30836;48.906;9.140;2023-01-29T05:36:58;997.47;;;8.70;38.01
45071;BME280;30836;48.906;9.140;2023-01-29T05:37:58;997.45;;;8.77;37.91
45071;BME280;30836;48.906;9.140;2023-01-29T05:38:59;997.45;;;8.84;37.76
45071;BME280;30836;48.906;9.140;2023-01-29T05:39:59;997.43;;;8.91;37.67
45071;BME280;30836;48.906;9.140;2023-01-29T05:41:00;997.45;;;8.97;37.58
45071;BME280;30836;48.906;9.140;2023-01-29T05:42:00;997.41;;;9.03;37.55
45071;BME280;30836;48.906;9.140;2023-01-29T05:43:01;997.33;;;9.09;37.51
45071;BME280;30836;48.906;9.140;2023-01-29T05:44:02;997.31;;;9.14;37.40
45071;BME280;30836;48.906;9.140;2023-01-29T05:45:02;997.25;;;9.19;37.34
45071;BME280;30836;48.906;9.140;2023-01-29T05:46:03;997.17;;;9.24;37.24
45071;BME280;30836;48.906;9.140;2023-01-29T05:47:04;997.15;;;9.28;37.17
45071;BME280;30836;48.906;9.140;2023-01-29T05:48:04;997.10;;;9.31;37.06
45071;BME280;30836;48.906;9.140;2023-01-29T05:49:05;997.06;;;9.34;37.05
45071;BME280;30836;48.906;9.140;2023-01-29T05:50:05;997.04;;;9.36;37.09
45071;BME280;30836;48.906;9.140;2023-01-29T05:51:06;997.00;;;9.37;37.02
45071;BME280;30836;48.906;9.140;2023-01-29T05:52:07;996.98;;;9.38;37.02
45071;BME280;30836;48.906;9.140;2023-01-29T05:53:07;996.98;;;9.41;36.90
45071;BME280;30836;48.906;9.140;2023-01-29T05:54:11;997.00;;;9.42;36.82
45071;BME280;30836;48.906;9.140;2023-01-29T05:55:12;997.02;;;9.40;36.85
45071;BME280;30836;48.906;9.140;2023-01-29T05:56:13;997.06;;;9.38;36.96
45071;BME280;30836;48.906;9.140;2023-01-29T05:57:13;997.06;;;9.37;37.04
45071;BME280;30836;48.906;9.140;2023-01-29T05:58:14;997.11;;;9.35;36.94
45071;BME280;30836;48.906;9.140;2023-01-29T05:58:24;997.17;;;9.27;36.94
45071;BME280;30836;48.906;9.140;2023-01-29T05:59:24;997.15;;;9.24;36.98
45071;BME280;30836;48.906;9.140;2023-01-29T06:00:25;997.15;;;9.13;37.23
45071;BME280;30836;48.906;9.140;2023-01-29T06:01:25;997.13;;;8.95;37.62
45071;BME280;30836;48.906;9.140;2023-01-29T06:02:28;997.13;;;8.76;37.88
45071;BME280;30836;48.906;9.140;2023-01-29T06:03:29;997.11;;;8.56;38.19
45071;BME280;30836;48.906;9.140;2023-01-29T06:04:30;997.10;;;8.43;38.40
45071;BME280;30836;48.906;9.140;2023-01-29T06:05:30;997.10;;;8.43;38.19
45071;BME280;30836;48.906;9.140;2023-01-29T06:06:31;997.10;;;8.50;38.12
45071;BME280;30836;48.906;9.140;2023-01-29T06:07:31;997.10;;;8.59;38.02
45071;BME280;30836;48.906;9.140;2023-01-29T06:08:32;997.10;;;8.68;37.92
45071;BME280;30836;48.906;9.140;2023-01-29T06:09:32;997.13;;;8.77;37.77
45071;BME280;30836;48.906;9.140;2023-01-29T06:10:33;997.15;;;8.87;37.61
45071;BME280;30836;48.906;9.140;2023-01-29T06:11:33;997.17;;;8.96;37.56
45071;BME280;30836;48.906;9.140;2023-01-29T06:12:34;997.19;;;9.02;37.49
45071;BME280;30836;48.906;9.140;2023-01-29T06:13:34;997.17;;;9.00;37.47
45071;BME280;30836;48.906;9.140;2023-01-29T06:14:35;997.15;;;8.79;37.70
45071;BME280;30836;48.906;9.140;2023-01-29T06:15:37;997.11;;;8.55;38.17
45071;BME280;30836;48.906;9.140;2023-01-29T06:16:39;997.15;;;8.46;38.07
45071;BME280;30836;48.906;9.140;2023-01-29T06:17:40;997.13;;;8.51;38.02
45071;BME280;30836;48.906;9.140;2023-01-29T06:18:41;997.15;;;8.57;37.96
45071;BME280;30836;48.906;9.140;2023-01-29T06:19:41;997.13;;;8.60;38.08
45071;BME280;30836;48.906;9.140;2023-01-29T06:20:42;997.13;;;8.58;38.05
45071;BME280;30836;48.906;9.140;2023-01-29T06:21:42;997.15;;;8.58;37.97
45071;BME280;30836;48.906;9.140;2023-01-29T06:22:43;997.17;;;8.57;38.08
45071;BME280;30836;48.906;9.140;2023-01-29T06:23:43;997.17;;;8.40;38.34
45071;BME280;30836;48.906;9.140;2023-01-29T06:24:44;997.21;;;8.16;38.95
45071;BME280;30836;48.906;9.140;2023-01-29T06:25:44;997.21;;;8.09;38.85
45071;BME280;30836;48.906;9.140;2023-01-29T06:26:45;997.21;;;8.06;38.78
45071;BME280;30836;48.906;9.140;2023-01-29T06:27:45;997.21;;;8.00;39.01
45071;BME280;30836;48.906;9.140;2023-01-29T06:28:50;997.23;;;7.92;39.15
45071;BME280;30836;48.906;9.140;2023-01-29T06:29:50;997.23;;;7.93;39.15
45071;BME280;30836;48.906;9.140;2023-01-29T06:30:50;997.23;;;7.93;39.08
45071;BME280;30836;48.906;9.140;2023-01-29T06:31:51;997.23;;;7.90;39.12
45071;BME280;30836;48.906;9.140;2023-01-29T06:32:54;997.23;;;7.89;39.14
45071;BME280;30836;48.906;9.140;2023-01-29T06:33:55;997.23;;;7.89;39.34
45071;BME280;30836;48.906;9.140;2023-01-29T06:34:56;997.25;;;7.89;39.19
45071;BME280;30836;48.906;9.140;2023-01-29T06:35:57;997.27;;;7.94;39.12
45071;BME280;30836;48.906;9.140;2023-01-29T06:36:58;997.27;;;7.99;38.94
45071;BME280;30836;48.906;9.140;2023-01-29T06:37:59;997.25;;;8.03;38.80
45071;BME280;30836;48.906;9.140;2023-01-29T06:38:59;997.25;;;8.04;38.90
45071;BME280;30836;48.906;9.140;2023-01-29T06:39:59;997.21;;;8.04;38.96
45071;BME280;30836;48.906;9.140;2023-01-29T06:41:08;997.23;;;8.07;38.73
45071;BME280;30836;48.906;9.140;2023-01-29T06:42:10;997.19;;;8.12;38.69
45071;BME280;30836;48.906;9.140;2023-01-29T06:43:10;997.17;;;8.20;38.49
45071;BME280;30836;48.906;9.140;2023-01-29T06:44:11;997.15;;;8.29;38.38
45071;BME280;30836;48.906;9.140;2023-01-29T06:45:11;997.17;;;8.38;38.29
45071;BME280;30836;48.906;9.140;2023-01-29T06:46:12;997.19;;;8.47;38.13
45071;BME280;30836;48.906;9.140;2023-01-29T06:47:12;997.19;;;8.55;38.03
45071;BME280;30836;48.906;9.140;2023-01-29T06:48:13;997.19;;;8.61;38.09
45071;BME280;30836;48.906;9.140;2023-01-29T06:49:13;997.19;;;8.67;38.05
45071;BME280;30836;48.906;9.140;2023-01-29T06:50:14;997.23;;;8.72;37.93
45071;BME280;30836;48.906;9.140;2023-01-29T06:51:14;997.21;;;8.77;37.90